Flight Track Log - Related Links

Times and Time Zones

All times are in EDT time to prevent confusion due to time zone crossing. See the ASH2683 flight status page for this flight to view local times or setup timezone preferences in your user account.

Time Position Orientation Groundspeed Altitude Reporting Facility
EDT Latitude Longitude Course Direction KTS MPH feet Rate Location/Type
Tue 07:00:15 AM 39.0244 -84.6607 326° Northwest  Level FlightAware Approximate
Tue 07:00:51 AM 39.0500 -84.6833 237° Southwest 159 183 1,400  Level Cincinnati TRACON
Tue 07:02:03 AM 39.0167 -84.7500 169° South 224 258 3,700 2,503 Climbing Cincinnati TRACON
Tue 07:03:34 AM 38.9131 -84.7233 160° South 291 335 8,200 2,861 Climbing Indianapolis Center
Tue 07:04:34 AM 38.8364 -84.6875 159° South 291 335 10,900 2,450 Climbing Indianapolis Center
Tue 07:05:34 AM 38.7511 -84.6461 159° South 313 360 13,100 2,550 Climbing Indianapolis Center
Tue 07:06:34 AM 38.6597 -84.6022 160° South 341 392 16,000 2,550 Climbing Indianapolis Center
Tue 07:07:34 AM 38.5664 -84.5583 162° South 356 410 18,200 2,100 Climbing Indianapolis Center
Tue 07:08:34 AM 38.4667 -84.5172 172° South 369 425 20,200 2,050 Climbing Indianapolis Center
Tue 07:09:34 AM 38.3644 -84.5000 178° South 374 430 22,300 2,000 Climbing Indianapolis Center
Tue 07:10:34 AM 38.2581 -84.4958 176° South 380 437 24,200 1,750 Climbing Indianapolis Center
Tue 07:11:34 AM 38.1478 -84.4867 177° South 388 447 25,800 1,600 Climbing Indianapolis Center
Tue 07:12:34 AM 38.0350 -84.4800 170° South 405 466 27,400 1,450 Climbing Indianapolis Center
Tue 07:13:34 AM 37.9186 -84.4547 163° South 416 479 28,700 800 Climbing Indianapolis Center
Tue 07:14:34 AM 37.7978 -84.4086 163° South 442 509 29,000 150 Climbing Indianapolis Center
Tue 07:15:34 AM 37.6772 -84.3625 163° South 452 520 29,000  Level Indianapolis Center
Tue 07:16:34 AM 37.5606 -84.3169 163° South 452 520 29,000  Level Indianapolis Center
Tue 07:17:34 AM 37.4442 -84.2711 164° South 447 514 29,000  Level Indianapolis Center
Tue 07:18:34 AM 37.3256 -84.2283 162° South 447 514 29,000  Level Indianapolis Center
Tue 07:19:34 AM 37.2111 -84.1828 163° South 435 501 29,000  Level Indianapolis Center
Tue 07:20:34 AM 37.0944 -84.1378 133° Southeast 435 501 29,000  Level Indianapolis Center
Tue 07:21:34 AM 37.0114 -84.0278 111° Southeast 429 494 29,000  Level Indianapolis Center
Tue 07:22:34 AM 36.9642 -83.8767 111° Southeast 463 533 29,000  Level Indianapolis Center
Tue 07:23:35 AM 36.9183 -83.7258 110° East 469 540 29,000  Level Indianapolis Center
Tue 07:24:34 AM 36.8747 -83.5753 111° Southeast 469 540 29,000  Level Indianapolis Center
Tue 07:25:34 AM 36.8289 -83.4247 110° East 469 540 29,000  Level Indianapolis Center
Tue 07:27:28 AM 36.7411 -83.1322 130° Southeast 494 568 29,000  Level Atlanta Center
Tue 07:28:28 AM 36.6608 -83.0114 131° Southeast 442 509 29,000  Level Atlanta Center
Tue 07:29:28 AM 36.5786 -82.8936 132° Southeast 458 527 29,000  Level Atlanta Center
Tue 07:30:28 AM 36.4919 -82.7758 132° Southeast 458 527 29,000 -700 Level Atlanta Center
Tue 07:31:28 AM 36.4092 -82.6611 133° Southeast 453 521 27,600 -1,450 Descending Atlanta Center
Tue 07:32:28 AM 36.3244 -82.5492 132° Southeast 453 521 26,100 -1,500 Descending Atlanta Center
Tue 07:33:28 AM 36.2397 -82.4325 132° Southeast 453 521 24,600 -1,050 Descending Atlanta Center
Tue 07:34:28 AM 36.1567 -82.3183 130° Southeast 453 521 24,000 -650 Descending Atlanta Center
Tue 07:35:28 AM 36.0886 -82.2194 134° Southeast 440 506 23,300 -1,150 Descending Atlanta Center
Tue 07:36:28 AM 35.9992 -82.1061 132° Southeast 428 493 21,700 -1,750 Descending Atlanta Center
Tue 07:37:28 AM 35.9225 -82.0028 133° Southeast 416 479 19,800 -2,050 Descending Atlanta Center
Tue 07:38:28 AM 35.8478 -81.9047 133° Southeast 403 464 17,600 -2,250 Descending Atlanta Center
Tue 07:39:28 AM 35.7750 -81.8069 133° Southeast 396 456 15,300 -2,300 Descending Atlanta Center
Tue 07:40:28 AM 35.7025 -81.7117 134° Southeast 377 434 13,000 -2,150 Descending Atlanta Center
Tue 07:41:28 AM 35.6319 -81.6217 121° Southeast 371 427 11,000 -1,000 Descending Atlanta Center
Tue 07:42:28 AM 35.5861 -81.5286 109° East 334 384 11,000 -300 Level Atlanta Center
Tue 07:43:28 AM 35.5569 -81.4272 108° East 315 362 10,400 -1,250 Descending Atlanta Center
Tue 07:44:28 AM 35.5297 -81.3261 107° East 315 362 8,500 -1,700 Descending Atlanta Center
Tue 07:45:28 AM 35.5044 -81.2250 108° East 315 362 7,000 -1,100 Descending Atlanta Center
Tue 07:46:28 AM 35.4794 -81.1289 109° East 299 344 6,300 -1,150 Descending Atlanta Center
Tue 07:47:28 AM 35.4542 -81.0381 137° Southeast 287 330 4,700 -1,150 Descending Atlanta Center
Tue 07:48:28 AM 35.4047 -80.9811 178° South 259 298 4,000 -750 Descending Atlanta Center
Tue 07:49:28 AM 35.3464 -80.9783 178° South 206 237 3,200 -805 Descending Atlanta Center
Tue 07:50:57 AM 35.2858 -80.9753 175° South 134 154 2,000 -795 Descending Atlanta Center
Tue 07:51:59 AM 35.2503 -80.9717 175° South 125 144 1,200 -774 Descending Atlanta Center

Login

Don't have an account? Register now (free) for customized features, flight alerts, and more!